sensor_id;sensor_type;location;lat;lon;timestamp;pressure;altitude;pressure_sealevel;temperature;humidity
6433;BME280;3249;42.690;23.260;2023-02-26T00:01:41;93184.81;;;13.09;56.42
6433;BME280;3249;42.690;23.260;2023-02-26T00:04:13;93219.47;;;13.28;53.18
6433;BME280;3249;42.690;23.260;2023-02-26T00:06:42;93203.19;;;13.18;53.51
6433;BME280;3249;42.690;23.260;2023-02-26T00:09:20;93178.34;;;13.17;54.21
6433;BME280;3249;42.690;23.260;2023-02-26T00:11:50;93171.16;;;13.14;54.86
6433;BME280;3249;42.690;23.260;2023-02-26T00:14:19;93182.25;;;13.24;53.75
6433;BME280;3249;42.690;23.260;2023-02-26T00:16:52;93188.19;;;13.25;53.05
6433;BME280;3249;42.690;23.260;2023-02-26T00:19:28;93173.97;;;13.22;54.25
6433;BME280;3249;42.690;23.260;2023-02-26T00:21:58;93177.84;;;13.25;51.76
6433;BME280;3249;42.690;23.260;2023-02-26T00:24:27;93184.34;;;13.27;51.66
6433;BME280;3249;42.690;23.260;2023-02-26T00:26:56;93175.25;;;13.25;52.38
6433;BME280;3249;42.690;23.260;2023-02-26T00:29:26;93169.59;;;13.23;53.03
6433;BME280;3249;42.690;23.260;2023-02-26T00:31:55;93176.84;;;13.26;54.41
6433;BME280;3249;42.690;23.260;2023-02-26T00:34:25;93158.22;;;13.19;50.94
6433;BME280;3249;42.690;23.260;2023-02-26T00:37:09;93167.53;;;13.15;49.23
6433;BME280;3249;42.690;23.260;2023-02-26T00:39:48;93158.75;;;13.26;51.22
6433;BME280;3249;42.690;23.260;2023-02-26T00:42:19;93167.28;;;13.16;51.60
6433;BME280;3249;42.690;23.260;2023-02-26T00:44:49;93170.63;;;13.22;49.09
6433;BME280;3249;42.690;23.260;2023-02-26T00:47:24;93157.97;;;13.25;49.86
6433;BME280;3249;42.690;23.260;2023-02-26T00:50:04;93156.41;;;13.24;52.32
6433;BME280;3249;42.690;23.260;2023-02-26T00:52:45;93143.25;;;13.06;51.35
6433;BME280;3249;42.690;23.260;2023-02-26T00:55:18;93151.50;;;13.18;51.15
6433;BME280;3249;42.690;23.260;2023-02-26T00:57:47;93153.06;;;13.14;50.04
6433;BME280;3249;42.690;23.260;2023-02-26T01:00:17;93162.88;;;13.22;48.09
6433;BME280;3249;42.690;23.260;2023-02-26T01:02:46;93164.41;;;13.13;47.67
6433;BME280;3249;42.690;23.260;2023-02-26T01:05:16;93162.34;;;13.25;46.23
6433;BME280;3249;42.690;23.260;2023-02-26T01:07:53;93157.16;;;13.25;45.72
6433;BME280;3249;42.690;23.260;2023-02-26T01:10:28;93152.78;;;13.25;46.29
6433;BME280;3249;42.690;23.260;2023-02-26T01:12:57;93152.00;;;13.25;48.18
6433;BME280;3249;42.690;23.260;2023-02-26T01:15:27;93136.25;;;13.21;48.18
6433;BME280;3249;42.690;23.260;2023-02-26T01:18:02;93132.63;;;13.17;46.72
6433;BME280;3249;42.690;23.260;2023-02-26T01:20:37;93138.84;;;13.21;46.75
6433;BME280;3249;42.690;23.260;2023-02-26T01:23:15;93141.16;;;13.03;47.69
6433;BME280;3249;42.690;23.260;2023-02-26T01:25:49;93128.25;;;12.98;47.45
6433;BME280;3249;42.690;23.260;2023-02-26T01:28:20;93134.97;;;13.14;45.79
6433;BME280;3249;42.690;23.260;2023-02-26T01:30:50;93136.75;;;13.18;46.27
6433;BME280;3249;42.690;23.260;2023-02-26T01:33:23;93110.66;;;13.20;44.29
6433;BME280;3249;42.690;23.260;2023-02-26T01:35:59;93106.78;;;13.22;43.24
6433;BME280;3249;42.690;23.260;2023-02-26T01:38:38;93124.63;;;13.24;43.39
6433;BME280;3249;42.690;23.260;2023-02-26T01:41:32;93098.78;;;13.24;42.88
6433;BME280;3249;42.690;23.260;2023-02-26T01:44:10;93100.31;;;13.25;42.50
6433;BME280;3249;42.690;23.260;2023-02-26T01:47:03;93096.19;;;13.29;41.77
6433;BME280;3249;42.690;23.260;2023-02-26T01:49:35;93105.75;;;13.33;41.82
6433;BME280;3249;42.690;23.260;2023-02-26T01:52:05;93096.72;;;13.26;42.33
6433;BME280;3249;42.690;23.260;2023-02-26T01:54:38;93106.03;;;13.27;41.69
6433;BME280;3249;42.690;23.260;2023-02-26T01:57:08;93047.66;;;13.01;42.04
6433;BME280;3249;42.690;23.260;2023-02-26T01:59:44;93079.94;;;13.23;42.65
6433;BME280;3249;42.690;23.260;2023-02-26T02:02:16;93080.19;;;13.17;42.91
6433;BME280;3249;42.690;23.260;2023-02-26T02:04:47;93026.97;;;12.81;43.07
6433;BME280;3249;42.690;23.260;2023-02-26T02:07:17;93058.50;;;13.03;42.53
6433;BME280;3249;42.690;23.260;2023-02-26T02:09:51;93065.72;;;12.96;42.60
6433;BME280;3249;42.690;23.260;2023-02-26T02:12:27;93060.31;;;13.02;42.97
6433;BME280;3249;42.690;23.260;2023-02-26T02:15:10;93067.81;;;12.99;42.58
6433;BME280;3249;42.690;23.260;2023-02-26T02:17:49;93063.69;;;12.98;43.08
6433;BME280;3249;42.690;23.260;2023-02-26T02:20:28;93073.47;;;12.96;43.15
6433;BME280;3249;42.690;23.260;2023-02-26T02:23:10;93057.47;;;12.94;42.97
6433;BME280;3249;42.690;23.260;2023-02-26T02:26:06;93047.38;;;12.92;42.55
6433;BME280;3249;42.690;23.260;2023-02-26T02:28:47;93052.28;;;12.94;42.71
6433;BME280;3249;42.690;23.260;2023-02-26T02:31:26;93036.00;;;12.93;41.84
6433;BME280;3249;42.690;23.260;2023-02-26T02:34:01;93052.06;;;13.00;41.93
6433;BME280;3249;42.690;23.260;2023-02-26T02:36:35;93021.81;;;12.86;41.97
6433;BME280;3249;42.690;23.260;2023-02-26T02:39:12;93043.53;;;13.00;41.56
6433;BME280;3249;42.690;23.260;2023-02-26T02:41:44;93063.13;;;12.96;42.08
6433;BME280;3249;42.690;23.260;2023-02-26T02:44:18;93049.69;;;12.89;41.80
6433;BME280;3249;42.690;23.260;2023-02-26T02:46:52;93081.75;;;13.03;41.87
6433;BME280;3249;42.690;23.260;2023-02-26T02:49:25;92989.84;;;12.47;42.21
6433;BME280;3249;42.690;23.260;2023-02-26T02:52:00;93082.00;;;12.96;41.26
6433;BME280;3249;42.690;23.260;2023-02-26T02:54:33;93079.94;;;12.98;41.58
6433;BME280;3249;42.690;23.260;2023-02-26T02:57:07;93072.16;;;12.93;41.45
6433;BME280;3249;42.690;23.260;2023-02-26T02:59:41;93080.72;;;12.99;40.43
6433;BME280;3249;42.690;23.260;2023-02-26T03:02:24;93094.13;;;13.01;40.42
6433;BME280;3249;42.690;23.260;2023-02-26T03:04:57;93084.03;;;12.94;40.92
6433;BME280;3249;42.690;23.260;2023-02-26T03:07:26;93076.56;;;12.93;40.96
6433;BME280;3249;42.690;23.260;2023-02-26T03:09:56;93085.91;;;12.99;40.05
6433;BME280;3249;42.690;23.260;2023-02-26T03:12:29;93092.09;;;12.98;39.99
6433;BME280;3249;42.690;23.260;2023-02-26T03:14:59;93087.66;;;12.93;40.21
6433;BME280;3249;42.690;23.260;2023-02-26T03:17:35;93075.25;;;12.90;40.27
6433;BME280;3249;42.690;23.260;2023-02-26T03:20:16;93095.97;;;13.00;40.65
6433;BME280;3249;42.690;23.260;2023-02-26T03:22:52;93105.78;;;12.98;40.48
6433;BME280;3249;42.690;23.260;2023-02-26T03:25:26;93091.56;;;12.91;40.26
6433;BME280;3249;42.690;23.260;2023-02-26T03:28:05;93086.88;;;12.93;40.28
6433;BME280;3249;42.690;23.260;2023-02-26T03:30:40;93091.00;;;12.89;40.42
6433;BME280;3249;42.690;23.260;2023-02-26T03:33:21;93087.44;;;12.90;40.24
6433;BME280;3249;42.690;23.260;2023-02-26T03:35:55;93087.94;;;12.87;40.71
6433;BME280;3249;42.690;23.260;2023-02-26T03:38:30;93079.66;;;12.85;40.67
6433;BME280;3249;42.690;23.260;2023-02-26T03:41:05;93083.78;;;12.81;41.48
6433;BME280;3249;42.690;23.260;2023-02-26T03:43:40;93090.25;;;12.78;42.22
6433;BME280;3249;42.690;23.260;2023-02-26T03:46:17;93075.53;;;12.69;42.78
6433;BME280;3249;42.690;23.260;2023-02-26T03:48:50;93063.66;;;12.58;42.98
6433;BME280;3249;42.690;23.260;2023-02-26T03:51:21;93060.03;;;12.54;43.96
6433;BME280;3249;42.690;23.260;2023-02-26T03:54:11;93065.72;;;12.61;44.59
6433;BME280;3249;42.690;23.260;2023-02-26T03:56:46;93063.66;;;12.58;44.72
6433;BME280;3249;42.690;23.260;2023-02-26T03:59:36;93063.66;;;12.58;45.13
6433;BME280;3249;42.690;23.260;2023-02-26T04:02:23;93060.56;;;12.56;44.94
6433;BME280;3249;42.690;23.260;2023-02-26T04:05:09;93062.88;;;12.57;45.06
6433;BME280;3249;42.690;23.260;2023-02-26T04:07:41;93051.75;;;12.57;44.97
6433;BME280;3249;42.690;23.260;2023-02-26T04:10:13;93017.41;;;12.31;45.20
6433;BME280;3249;42.690;23.260;2023-02-26T04:12:43;93073.19;;;12.62;44.79
6433;BME280;3249;42.690;23.260;2023-02-26T04:15:13;93060.81;;;12.59;45.11
6433;BME280;3249;42.690;23.260;2023-02-26T04:17:42;93057.97;;;12.61;45.28
6433;BME280;3249;42.690;23.260;2023-02-26T04:20:14;93026.47;;;12.49;45.44
6433;BME280;3249;42.690;23.260;2023-02-26T04:22:43;93049.19;;;12.67;45.17
6433;BME280;3249;42.690;23.260;2023-02-26T04:25:12;93037.31;;;12.61;43.91
6433;BME280;3249;42.690;23.260;2023-02-26T04:27:42;93044.31;;;12.60;43.92
6433;BME280;3249;42.690;23.260;2023-02-26T04:30:12;93034.47;;;12.62;44.03
6433;BME280;3249;42.690;23.260;2023-02-26T04:32:41;93025.94;;;12.57;43.84
6433;BME280;3249;42.690;23.260;2023-02-26T04:35:15;93024.94;;;12.63;43.98
6433;BME280;3249;42.690;23.260;2023-02-26T04:37:44;93019.75;;;12.68;42.59
6433;BME280;3249;42.690;23.260;2023-02-26T04:40:13;93029.06;;;12.74;42.92
6433;BME280;3249;42.690;23.260;2023-02-26T04:42:43;93006.09;;;12.72;41.85
6433;BME280;3249;42.690;23.260;2023-02-26T04:45:19;93011.25;;;12.72;41.73
6433;BME280;3249;42.690;23.260;2023-02-26T04:47:48;92998.09;;;12.74;41.53
6433;BME280;3249;42.690;23.260;2023-02-26T04:50:19;93015.88;;;12.80;41.20
6433;BME280;3249;42.690;23.260;2023-02-26T04:52:51;93007.88;;;12.82;40.63
6433;BME280;3249;42.690;23.260;2023-02-26T04:55:21;92993.16;;;12.82;40.66
6433;BME280;3249;42.690;23.260;2023-02-26T04:57:50;92993.16;;;12.82;39.91
6433;BME280;3249;42.690;23.260;2023-02-26T05:00:23;92985.66;;;12.91;39.44
6433;BME280;3249;42.690;23.260;2023-02-26T05:02:53;92984.88;;;12.90;39.74
6433;BME280;3249;42.690;23.260;2023-02-26T05:05:25;92984.88;;;12.90;39.53
6433;BME280;3249;42.690;23.260;2023-02-26T05:07:54;92984.59;;;12.97;38.92
6433;BME280;3249;42.690;23.260;2023-02-26T05:10:23;92988.47;;;12.94;39.52
6433;BME280;3249;42.690;23.260;2023-02-26T05:12:53;92980.50;;;13.01;38.14
6433;BME280;3249;42.690;23.260;2023-02-26T05:15:22;92961.09;;;13.08;37.43
6433;BME280;3249;42.690;23.260;2023-02-26T05:17:51;92954.63;;;13.16;36.96
6433;BME280;3249;42.690;23.260;2023-02-26T05:20:24;92950.03;;;12.88;36.90
6433;BME280;3249;42.690;23.260;2023-02-26T05:22:53;92971.66;;;13.22;36.93
6433;BME280;3249;42.690;23.260;2023-02-26T05:25:23;92953.88;;;13.15;36.90
6433;BME280;3249;42.690;23.260;2023-02-26T05:27:52;92968.56;;;13.20;36.84
6433;BME280;3249;42.690;23.260;2023-02-26T05:30:22;92950.22;;;13.21;36.79
6433;BME280;3249;42.690;23.260;2023-02-26T05:32:52;92936.25;;;13.22;36.71
6433;BME280;3249;42.690;23.260;2023-02-26T05:35:24;92967.25;;;13.27;36.42
6433;BME280;3249;42.690;23.260;2023-02-26T05:37:53;92946.28;;;13.29;36.21
6433;BME280;3249;42.690;23.260;2023-02-26T05:40:25;92952.78;;;13.31;36.42
6433;BME280;3249;42.690;23.260;2023-02-26T05:42:54;92959.75;;;13.31;36.35
6433;BME280;3249;42.690;23.260;2023-02-26T05:45:23;92955.59;;;13.35;36.40
6433;BME280;3249;42.690;23.260;2023-02-26T05:47:52;92962.56;;;13.34;36.18
6433;BME280;3249;42.690;23.260;2023-02-26T05:50:24;92952.22;;;13.39;35.70
6433;BME280;3249;42.690;23.260;2023-02-26T05:52:54;92967.72;;;13.39;35.75
6433;BME280;3249;42.690;23.260;2023-02-26T05:55:23;92946.00;;;13.40;35.21
6433;BME280;3249;42.690;23.260;2023-02-26T05:57:52;92959.91;;;13.49;35.13
6433;BME280;3249;42.690;23.260;2023-02-26T06:00:22;92951.41;;;13.49;34.55
6433;BME280;3249;42.690;23.260;2023-02-26T06:02:52;92970.47;;;13.63;34.08
6433;BME280;3249;42.690;23.260;2023-02-26T06:05:24;92969.38;;;13.74;33.94
6433;BME280;3249;42.690;23.260;2023-02-26T06:07:53;92999.84;;;13.82;33.50
6433;BME280;3249;42.690;23.260;2023-02-26T06:10:24;92998.28;;;13.86;33.24
6433;BME280;3249;42.690;23.260;2023-02-26T06:12:56;92997.97;;;13.93;33.09
6433;BME280;3249;42.690;23.260;2023-02-26T06:15:25;92973.91;;;13.97;32.72
6433;BME280;3249;42.690;23.260;2023-02-26T06:17:54;93008.50;;;14.06;32.80
6433;BME280;3249;42.690;23.260;2023-02-26T06:20:26;93012.59;;;14.12;32.60
6433;BME280;3249;42.690;23.260;2023-02-26T06:22:55;93031.47;;;14.18;32.80
6433;BME280;3249;42.690;23.260;2023-02-26T06:25:24;93007.91;;;14.19;32.29
6433;BME280;3249;42.690;23.260;2023-02-26T06:27:53;93000.69;;;14.21;32.32
6433;BME280;3249;42.690;23.260;2023-02-26T06:30:22;92989.84;;;14.14;32.26
6433;BME280;3249;42.690;23.260;2023-02-26T06:32:52;92974.50;;;14.28;32.06
6433;BME280;3249;42.690;23.260;2023-02-26T06:35:37;92978.91;;;14.27;32.53
6433;BME280;3249;42.690;23.260;2023-02-26T06:38:07;92997.19;;;14.41;31.69
6433;BME280;3249;42.690;23.260;2023-02-26T06:40:36;92990.41;;;14.45;31.08
6433;BME280;3249;42.690;23.260;2023-02-26T06:43:05;92999.47;;;14.47;31.57
6433;BME280;3249;42.690;23.260;2023-02-26T06:45:34;92981.91;;;14.39;31.37
6433;BME280;3249;42.690;23.260;2023-02-26T06:48:04;92995.03;;;14.53;31.14
6433;BME280;3249;42.690;23.260;2023-02-26T06:50:36;92975.56;;;14.55;30.46
6433;BME280;3249;42.690;23.260;2023-02-26T06:53:05;92989.53;;;14.59;30.38
6433;BME280;3249;42.690;23.260;2023-02-26T06:55:34;92966.91;;;14.36;30.42
6433;BME280;3249;42.690;23.260;2023-02-26T06:58:03;92974.19;;;14.68;29.92
6433;BME280;3249;42.690;23.260;2023-02-26T07:00:33;92992.81;;;14.70;29.90
6433;BME280;3249;42.690;23.260;2023-02-26T07:03:03;92974.38;;;14.76;30.30
6433;BME280;3249;42.690;23.260;2023-02-26T07:05:31;92997.41;;;14.78;29.91
6433;BME280;3249;42.690;23.260;2023-02-26T07:08:07;92991.94;;;14.79;30.09
6433;BME280;3249;42.690;23.260;2023-02-26T07:10:38;92983.38;;;14.84;29.70
6433;BME280;3249;42.690;23.260;2023-02-26T07:13:08;93004.03;;;14.89;29.85
6433;BME280;3249;42.690;23.260;2023-02-26T07:15:39;92997.78;;;14.95;29.71
6433;BME280;3249;42.690;23.260;2023-02-26T07:18:08;92988.75;;;14.87;30.48
6433;BME280;3249;42.690;23.260;2023-02-26T07:20:37;92993.06;;;14.97;30.81
6433;BME280;3249;42.690;23.260;2023-02-26T07:23:09;93003.69;;;15.00;30.35
6433;BME280;3249;42.690;23.260;2023-02-26T07:25:38;93027.44;;;15.07;30.35
6433;BME280;3249;42.690;23.260;2023-02-26T07:28:10;93018.59;;;15.13;30.03
6433;BME280;3249;42.690;23.260;2023-02-26T07:30:40;93008.09;;;15.00;30.39
6433;BME280;3249;42.690;23.260;2023-02-26T07:33:10;92998.41;;;15.10;30.45
6433;BME280;3249;42.690;23.260;2023-02-26T07:35:39;92991.03;;;14.94;30.23
6433;BME280;3249;42.690;23.260;2023-02-26T07:38:11;93008.97;;;15.14;30.23
6433;BME280;3249;42.690;23.260;2023-02-26T07:40:40;93010.28;;;15.16;30.13
6433;BME280;3249;42.690;23.260;2023-02-26T07:43:13;93016.47;;;15.15;29.75
6433;BME280;3249;42.690;23.260;2023-02-26T07:45:43;93013.34;;;15.18;30.01
6433;BME280;3249;42.690;23.260;2023-02-26T07:48:13;93021.78;;;15.29;30.07
6433;BME280;3249;42.690;23.260;2023-02-26T07:50:43;92975.13;;;15.05;30.31
6433;BME280;3249;42.690;23.260;2023-02-26T07:53:15;92972.47;;;15.10;30.57
6433;BME280;3249;42.690;23.260;2023-02-26T07:55:44;92993.06;;;15.25;30.38
6433;BME280;3249;42.690;23.260;2023-02-26T07:58:14;93001.78;;;15.34;29.74
6433;BME280;3249;42.690;23.260;2023-02-26T08:00:44;93008.50;;;15.40;29.70
6433;BME280;3249;42.690;23.260;2023-02-26T08:03:12;92990.06;;;15.42;29.86
6433;BME280;3249;42.690;23.260;2023-02-26T08:05:42;93002.81;;;15.62;29.26
6433;BME280;3249;42.690;23.260;2023-02-26T08:08:16;93002.13;;;15.51;29.36
6433;BME280;3249;42.690;23.260;2023-02-26T08:10:45;92997.75;;;15.70;29.70
6433;BME280;3249;42.690;23.260;2023-02-26T08:13:14;93005.91;;;15.82;29.40
6433;BME280;3249;42.690;23.260;2023-02-26T08:15:44;93013.97;;;15.81;29.58
6433;BME280;3249;42.690;23.260;2023-02-26T08:18:13;93007.66;;;15.68;29.61
6433;BME280;3249;42.690;23.260;2023-02-26T08:20:42;92998.22;;;15.54;29.68
6433;BME280;3249;42.690;23.260;2023-02-26T08:23:12;93032.94;;;15.58;29.45
6433;BME280;3249;42.690;23.260;2023-02-26T08:25:43;93009.66;;;15.71;29.49
6433;BME280;3249;42.690;23.260;2023-02-26T08:28:13;93003.94;;;15.74;28.99
6433;BME280;3249;42.690;23.260;2023-02-26T08:30:42;93039.72;;;15.77;29.09
6433;BME280;3249;42.690;23.260;2023-02-26T08:33:15;93028.50;;;15.82;28.95
6433;BME280;3249;42.690;23.260;2023-02-26T08:35:45;93015.75;;;15.85;28.97
6433;BME280;3249;42.690;23.260;2023-02-26T08:38:15;93040.53;;;15.96;28.99
6433;BME280;3249;42.690;23.260;2023-02-26T08:40:48;93017.78;;;15.88;28.77
6433;BME280;3249;42.690;23.260;2023-02-26T08:43:20;93020.78;;;15.95;28.89
6433;BME280;3249;42.690;23.260;2023-02-26T08:45:52;93053.78;;;15.95;28.76
6433;BME280;3249;42.690;23.260;2023-02-26T08:48:23;93045.66;;;16.01;28.27
6433;BME280;3249;42.690;23.260;2023-02-26T08:50:53;93036.44;;;16.09;28.89
6433;BME280;3249;42.690;23.260;2023-02-26T08:53:22;93024.94;;;15.96;28.48
6433;BME280;3249;42.690;23.260;2023-02-26T08:55:58;93063.75;;;16.06;28.21
6433;BME280;3249;42.690;23.260;2023-02-26T08:58:28;93064.72;;;16.10;28.45
6433;BME280;3249;42.690;23.260;2023-02-26T09:01:00;93032.75;;;16.15;28.13
6433;BME280;3249;42.690;23.260;2023-02-26T09:03:29;93044.94;;;16.14;27.25
6433;BME280;3249;42.690;23.260;2023-02-26T09:06:12;93048.19;;;16.25;27.70
6433;BME280;3249;42.690;23.260;2023-02-26T09:08:45;93071.44;;;16.35;27.97
6433;BME280;3249;42.690;23.260;2023-02-26T09:11:18;93044.47;;;16.31;27.85
6433;BME280;3249;42.690;23.260;2023-02-26T09:13:47;93057.00;;;16.47;27.52
6433;BME280;3249;42.690;23.260;2023-02-26T09:16:16;93055.88;;;16.53;27.49
6433;BME280;3249;42.690;23.260;2023-02-26T09:18:46;93050.94;;;16.70;27.24
6433;BME280;3249;42.690;23.260;2023-02-26T09:21:16;93047.84;;;16.87;26.86
6433;BME280;3249;42.690;23.260;2023-02-26T09:23:46;93050.72;;;16.85;26.94
6433;BME280;3249;42.690;23.260;2023-02-26T09:26:20;93057.38;;;16.91;26.09
6433;BME280;3249;42.690;23.260;2023-02-26T09:28:49;93062.13;;;17.03;26.11
6433;BME280;3249;42.690;23.260;2023-02-26T09:31:19;93069.47;;;17.14;26.53
6433;BME280;3249;42.690;23.260;2023-02-26T09:33:48;93066.06;;;17.32;25.52
6433;BME280;3249;42.690;23.260;2023-02-26T09:36:19;93062.34;;;17.52;25.69
6433;BME280;3249;42.690;23.260;2023-02-26T09:38:48;93080.78;;;17.69;25.19
6433;BME280;3249;42.690;23.260;2023-02-26T09:41:24;93076.34;;;17.69;24.47
6433;BME280;3249;42.690;23.260;2023-02-26T09:44:11;93091.50;;;17.67;24.99
6433;BME280;3249;42.690;23.260;2023-02-26T09:47:02;93075.28;;;17.57;24.57
6433;BME280;3249;42.690;23.260;2023-02-26T09:49:45;93078.47;;;17.67;24.85
6433;BME280;3249;42.690;23.260;2023-02-26T09:52:23;93074.50;;;17.56;25.30
6433;BME280;3249;42.690;23.260;2023-02-26T09:54:58;93095.03;;;17.58;24.94
6433;BME280;3249;42.690;23.260;2023-02-26T09:57:36;93081.09;;;17.35;25.80
6433;BME280;3249;42.690;23.260;2023-02-26T10:00:21;93094.19;;;17.30;25.86
6433;BME280;3249;42.690;23.260;2023-02-26T10:02:59;93087.91;;;17.18;25.89
6433;BME280;3249;42.690;23.260;2023-02-26T10:05:39;93082.03;;;17.26;26.79
6433;BME280;3249;42.690;23.260;2023-02-26T10:08:14;93067.88;;;17.32;26.41
6433;BME280;3249;42.690;23.260;2023-02-26T10:10:48;93075.59;;;17.23;26.45
6433;BME280;3249;42.690;23.260;2023-02-26T10:13:26;93058.63;;;17.26;26.70
6433;BME280;3249;42.690;23.260;2023-02-26T10:16:03;93058.50;;;17.17;26.81
6433;BME280;3249;42.690;23.260;2023-02-26T10:18:36;93062.38;;;17.33;26.75
6433;BME280;3249;42.690;23.260;2023-02-26T10:21:10;93054.69;;;17.28;26.63
6433;BME280;3249;42.690;23.260;2023-02-26T10:23:42;93025.13;;;16.92;26.93
6433;BME280;3249;42.690;23.260;2023-02-26T10:26:19;93046.44;;;17.08;26.87
6433;BME280;3249;42.690;23.260;2023-02-26T10:29:01;93057.06;;;17.11;26.88
6433;BME280;3249;42.690;23.260;2023-02-26T10:31:35;93055.25;;;17.25;26.91
6433;BME280;3249;42.690;23.260;2023-02-26T10:34:16;93006.56;;;16.99;26.38
6433;BME280;3249;42.690;23.260;2023-02-26T10:36:56;93018.53;;;17.13;27.02
6433;BME280;3249;42.690;23.260;2023-02-26T10:39:30;93031.16;;;17.20;27.40
6433;BME280;3249;42.690;23.260;2023-02-26T10:42:02;93030.66;;;17.04;27.30
6433;BME280;3249;42.690;23.260;2023-02-26T10:44:41;93010.59;;;16.91;28.30
6433;BME280;3249;42.690;23.260;2023-02-26T10:47:19;93019.97;;;17.06;28.20
6433;BME280;3249;42.690;23.260;2023-02-26T10:49:54;93019.47;;;17.04;28.16
6433;BME280;3249;42.690;23.260;2023-02-26T10:52:27;93036.03;;;17.08;28.18
6433;BME280;3249;42.690;23.260;2023-02-26T10:55:11;93025.59;;;16.94;28.67
6433;BME280;3249;42.690;23.260;2023-02-26T10:57:53;93022.25;;;16.94;28.75
6433;BME280;3249;42.690;23.260;2023-02-26T11:00:25;92987.25;;;16.86;28.51
6433;BME280;3249;42.690;23.260;2023-02-26T11:03:12;93009.69;;;16.82;28.53
6433;BME280;3249;42.690;23.260;2023-02-26T11:05:42;93012.28;;;16.82;29.16
6433;BME280;3249;42.690;23.260;2023-02-26T11:08:16;92983.53;;;16.92;28.87
6433;BME280;3249;42.690;23.260;2023-02-26T11:10:49;92984.75;;;16.81;28.45
6433;BME280;3249;42.690;23.260;2023-02-26T11:13:21;92993.44;;;16.90;28.62
6433;BME280;3249;42.690;23.260;2023-02-26T11:15:54;92969.38;;;16.85;28.34
6433;BME280;3249;42.690;23.260;2023-02-26T11:18:26;92962.13;;;16.68;28.62
6433;BME280;3249;42.690;23.260;2023-02-26T11:20:57;92965.84;;;16.62;28.97
6433;BME280;3249;42.690;23.260;2023-02-26T11:23:30;92998.44;;;16.87;29.45
6433;BME280;3249;42.690;23.260;2023-02-26T11:26:04;92983.59;;;16.74;29.22
6433;BME280;3249;42.690;23.260;2023-02-26T11:28:41;92981.72;;;16.61;29.84
6433;BME280;3249;42.690;23.260;2023-02-26T11:31:19;92977.41;;;16.70;30.26
6433;BME280;3249;42.690;23.260;2023-02-26T11:34:00;92948.31;;;16.36;30.36
6433;BME280;3249;42.690;23.260;2023-02-26T11:36:32;92973.09;;;16.47;30.87
6433;BME280;3249;42.690;23.260;2023-02-26T11:39:07;92975.16;;;16.31;30.83
6433;BME280;3249;42.690;23.260;2023-02-26T11:41:38;92948.88;;;16.14;30.80
6433;BME280;3249;42.690;23.260;2023-02-26T11:44:11;92980.00;;;16.19;31.17
6433;BME280;3249;42.690;23.260;2023-02-26T11:46:48;92967.50;;;16.21;31.98
6433;BME280;3249;42.690;23.260;2023-02-26T11:49:21;92982.59;;;16.19;32.46
6433;BME280;3249;42.690;23.260;2023-02-26T11:52:17;92981.47;;;16.07;32.67
6433;BME280;3249;42.690;23.260;2023-02-26T11:54:54;93000.25;;;15.99;33.18
6433;BME280;3249;42.690;23.260;2023-02-26T11:57:32;93008.47;;;16.06;33.83
6433;BME280;3249;42.690;23.260;2023-02-26T12:00:20;93012.59;;;16.07;34.27
6433;BME280;3249;42.690;23.260;2023-02-26T12:02:59;93051.47;;;16.12;34.95
6433;BME280;3249;42.690;23.260;2023-02-26T12:05:31;93051.19;;;16.13;34.88
6433;BME280;3249;42.690;23.260;2023-02-26T12:08:03;93073.56;;;16.09;35.56
6433;BME280;3249;42.690;23.260;2023-02-26T12:10:41;93071.50;;;16.11;35.95
6433;BME280;3249;42.690;23.260;2023-02-26T12:13:20;93056.47;;;16.08;35.51
6433;BME280;3249;42.690;23.260;2023-02-26T12:15:57;93091.34;;;16.21;34.82
6433;BME280;3249;42.690;23.260;2023-02-26T12:18:44;93101.53;;;16.36;34.42
6433;BME280;3249;42.690;23.260;2023-02-26T12:21:27;93100.19;;;16.43;33.89
6433;BME280;3249;42.690;23.260;2023-02-26T12:24:18;93077.97;;;16.32;33.17
6433;BME280;3249;42.690;23.260;2023-02-26T12:26:58;93083.19;;;16.09;33.70
6433;BME280;3249;42.690;23.260;2023-02-26T12:30:01;93075.03;;;15.97;34.27
6433;BME280;3249;42.690;23.260;2023-02-26T12:32:39;93103.66;;;16.10;34.30
6433;BME280;3249;42.690;23.260;2023-02-26T12:35:53;93079.22;;;16.16;34.59
6433;BME280;3249;42.690;23.260;2023-02-26T12:38:32;93099.47;;;16.14;34.24
6433;BME280;3249;42.690;23.260;2023-02-26T12:44:21;93119.69;;;16.17;33.53
6433;BME280;3249;42.690;23.260;2023-02-26T12:47:11;93147.16;;;16.23;34.05
6433;BME280;3249;42.690;23.260;2023-02-26T12:50:06;93142.63;;;16.34;34.23
6433;BME280;3249;42.690;23.260;2023-02-26T12:55:51;93149.03;;;16.41;34.32
6433;BME280;3249;42.690;23.260;2023-02-26T12:58:33;93144.63;;;16.37;34.52
6433;BME280;3249;42.690;23.260;2023-02-26T13:01:17;93157.06;;;16.40;34.80
6433;BME280;3249;42.690;23.260;2023-02-26T13:10:03;93165.28;;;16.28;33.75
6433;BME280;3249;42.690;23.260;2023-02-26T13:12:43;93169.69;;;16.28;35.19
6433;BME280;3249;42.690;23.260;2023-02-26T13:15:34;93178.13;;;16.43;35.23
6433;BME280;3249;42.690;23.260;2023-02-26T13:18:10;93170.81;;;16.45;35.85
6433;BME280;3249;42.690;23.260;2023-02-26T13:20:51;93172.13;;;16.43;35.62
6433;BME280;3249;42.690;23.260;2023-02-26T13:23:34;93157.81;;;16.45;36.27
6433;BME280;3249;42.690;23.260;2023-02-26T13:26:09;93144.16;;;16.35;36.16
6433;BME280;3249;42.690;23.260;2023-02-26T13:28:42;93162.41;;;16.30;36.31
6433;BME280;3249;42.690;23.260;2023-02-26T13:31:15;93150.69;;;16.09;37.33
6433;BME280;3249;42.690;23.260;2023-02-26T13:33:49;93112.22;;;15.87;37.53
6433;BME280;3249;42.690;23.260;2023-02-26T13:36:26;93146.72;;;16.16;38.70
6433;BME280;3249;42.690;23.260;2023-02-26T13:39:05;93077.38;;;15.75;37.55
6433;BME280;3249;42.690;23.260;2023-02-26T13:41:46;93133.75;;;16.35;37.25
6433;BME280;3249;42.690;23.260;2023-02-26T13:44:25;93129.88;;;16.56;36.82
6433;BME280;3249;42.690;23.260;2023-02-26T13:47:20;93115.16;;;16.51;36.41
6433;BME280;3249;42.690;23.260;2023-02-26T13:50:00;93118.88;;;16.40;36.98
6433;BME280;3249;42.690;23.260;2023-02-26T13:52:34;93128.19;;;16.46;36.48
6433;BME280;3249;42.690;23.260;2023-02-26T13:55:04;93117.88;;;16.41;35.90
6433;BME280;3249;42.690;23.260;2023-02-26T13:57:48;93109.31;;;16.36;35.40
6433;BME280;3249;42.690;23.260;2023-02-26T14:00:27;93131.22;;;16.53;35.85